createdAt,value
2022-11-27T00:01:49.268Z,1.55
2022-11-27T00:06:37.409Z,1.75
2022-11-27T00:10:57.586Z,2.92
2022-11-27T00:26:41.086Z,1.48
2022-11-27T00:32:24.629Z,2.42
2022-11-27T00:41:52.072Z,2.10
2022-11-27T00:47:53.916Z,2.42
2022-11-27T01:02:06.528Z,1.55
2022-11-27T01:16:43.345Z,1.38
2022-11-27T01:20:49.051Z,2.15
2022-11-27T01:25:25.531Z,2.28
2022-11-27T01:30:11.844Z,1.73
2022-11-27T01:34:26.275Z,2.20
2022-11-27T01:39:13.075Z,1.98
2022-11-27T01:43:46.573Z,2.03
2022-11-27T01:53:28.252Z,1.48
2022-11-27T01:57:53.082Z,2.45
2022-11-27T02:02:32.235Z,2.03
2022-11-27T02:06:56.569Z,1.48
2022-11-27T02:11:24.549Z,2.47
2022-11-27T02:16:20.468Z,2.33
2022-11-27T02:26:17.835Z,1.95
2022-11-27T02:35:24.972Z,1.48
2022-11-27T02:40:10.355Z,2.20
2022-11-27T02:44:25.866Z,2.65
2022-11-27T02:48:44.896Z,2.03
2022-11-27T02:58:15.144Z,1.85
2022-11-27T03:03:09.172Z,3.28
2022-11-27T03:07:44.512Z,3.15
2022-11-27T03:12:19.201Z,4.30
2022-11-27T03:17:28.252Z,4.63
2022-11-27T03:22:26.605Z,3.65
2022-11-27T03:27:03.959Z,2.72
2022-11-27T03:31:21.412Z,4.00
2022-11-27T03:35:52.908Z,3.65
2022-11-27T03:40:08.241Z,3.90
2022-11-27T03:44:47.160Z,2.25
2022-11-27T03:49:59.781Z,2.80
2022-11-27T03:59:59.404Z,1.58
2022-11-27T04:19:53.497Z,2.53
2022-11-27T04:24:48.286Z,2.33
2022-11-27T04:29:53.190Z,3.50
2022-11-27T04:34:40.415Z,2.60
2022-11-27T04:43:48.545Z,2.35
2022-11-27T04:48:17.017Z,4.05
2022-11-27T04:52:41.953Z,3.78
2022-11-27T04:57:12.925Z,3.10
2022-11-27T05:06:46.015Z,2.70
2022-11-27T05:11:21.855Z,3.78
2022-11-27T05:15:35.612Z,4.28
2022-11-27T05:19:54.744Z,3.42
2022-11-27T05:24:11.923Z,4.05
2022-11-27T05:28:16.557Z,3.60
2022-11-27T05:32:21.256Z,3.15
2022-11-27T05:36:33.269Z,3.28
2022-11-27T05:40:48.727Z,3.55
2022-11-27T05:44:58.526Z,2.88
2022-11-27T05:49:08.321Z,3.25
2022-11-27T05:53:12.607Z,3.40
2022-11-27T05:57:24.961Z,2.67
2022-11-27T06:01:37.456Z,2.88
2022-11-27T06:05:51.851Z,3.53
2022-11-27T06:15:43.737Z,2.13
2022-11-27T06:19:51.134Z,2.28
2022-11-27T06:24:28.073Z,2.45
2022-11-27T06:35:31.769Z,2.85
2022-11-27T06:46:15.633Z,2.40
2022-11-27T06:54:48.927Z,2.53
2022-11-27T06:59:13.797Z,4.07
2022-11-27T07:03:23.457Z,3.17
2022-11-27T07:07:33.567Z,5.28
2022-11-27T07:11:36.230Z,3.00
2022-11-27T07:15:38.402Z,2.88
2022-11-27T07:19:51.736Z,2.53
2022-11-27T07:23:56.420Z,3.63
2022-11-27T07:28:02.047Z,3.60
2022-11-27T07:32:43.131Z,3.85
2022-11-27T07:37:05.125Z,2.72
2022-11-27T07:41:50.800Z,2.70
2022-11-27T07:46:41.203Z,3.00
2022-11-27T07:50:45.558Z,4.20
2022-11-27T07:54:47.532Z,4.82
2022-11-27T07:58:52.057Z,4.97
2022-11-27T08:02:53.880Z,3.40
2022-11-27T08:06:57.448Z,4.85
2022-11-27T08:10:59.159Z,3.25
2022-11-27T08:15:06.307Z,3.92
2022-11-27T08:19:13.397Z,3.45
2022-11-27T08:29:31.178Z,3.22
2022-11-27T08:39:37.842Z,2.67
2022-11-27T08:43:44.866Z,3.22
2022-11-27T08:47:46.653Z,3.58
2022-11-27T08:51:55.722Z,3.30
2022-11-27T08:56:05.727Z,3.55
2022-11-27T09:00:10.866Z,4.38
2022-11-27T09:04:12.485Z,3.95
2022-11-27T09:08:20.045Z,2.70
2022-11-27T09:12:22.033Z,2.42
2022-11-27T09:16:23.743Z,2.67
2022-11-27T09:20:25.214Z,2.17
2022-11-27T09:24:26.704Z,2.42
2022-11-27T09:28:31.541Z,2.65
2022-11-27T09:32:33.493Z,3.13
2022-11-27T09:36:35.134Z,1.50
2022-11-27T09:40:36.946Z,3.03
2022-11-27T09:44:53.544Z,2.88
2022-11-27T09:48:58.257Z,2.65
2022-11-27T09:53:20.509Z,2.75
2022-11-27T09:57:43.229Z,2.97
2022-11-27T10:01:49.324Z,2.75
2022-11-27T10:06:24.119Z,3.05
2022-11-27T10:10:44.721Z,2.92
2022-11-27T10:14:59.738Z,2.78
2022-11-27T10:19:17.239Z,3.33
2022-11-27T10:23:37.502Z,2.20
2022-11-27T10:31:51.755Z,1.88
2022-11-27T10:35:54.000Z,3.22
2022-11-27T10:40:06.060Z,2.60
2022-11-27T10:44:31.598Z,2.33
2022-11-27T10:48:33.264Z,2.75
2022-11-27T10:52:34.727Z,3.20
2022-11-27T10:57:13.172Z,3.08
2022-11-27T11:01:17.951Z,2.47
2022-11-27T11:05:57.443Z,2.28
2022-11-27T11:09:48.508Z,2.00
2022-11-27T11:13:50.212Z,3.10
2022-11-27T11:17:51.677Z,1.75
2022-11-27T11:21:53.292Z,2.78
2022-11-27T11:25:59.363Z,2.50
2022-11-27T11:30:05.703Z,2.30
2022-11-27T11:34:23.492Z,2.25
2022-11-27T11:38:31.338Z,1.52
2022-11-27T11:42:36.331Z,1.40
2022-11-27T11:46:40.030Z,1.90
2022-11-27T11:50:47.841Z,2.10
2022-11-27T11:55:02.375Z,3.10
2022-11-27T11:59:15.293Z,3.08
2022-11-27T12:03:32.436Z,1.90
2022-11-27T12:08:00.162Z,2.20
2022-11-27T12:12:36.773Z,1.85
2022-11-27T12:16:48.298Z,2.60
2022-11-27T12:21:11.310Z,2.70
2022-11-27T12:25:12.706Z,3.08
2022-11-27T12:29:37.533Z,2.83
2022-11-27T12:33:45.041Z,2.25
2022-11-27T12:37:49.334Z,2.25
2022-11-27T12:42:00.153Z,2.75
2022-11-27T12:46:28.305Z,2.03
2022-11-27T12:50:41.288Z,2.13
2022-11-27T12:55:21.357Z,2.33
2022-11-27T12:59:28.179Z,1.60
2022-11-27T13:03:56.045Z,2.13
2022-11-27T13:08:13.028Z,1.65
2022-11-27T13:12:24.413Z,2.15
2022-11-27T13:16:36.756Z,1.80
2022-11-27T13:20:40.619Z,2.22
2022-11-27T13:24:42.535Z,2.80
2022-11-27T13:29:12.841Z,1.52
2022-11-27T13:33:30.384Z,1.98
2022-11-27T13:37:36.633Z,1.67
2022-11-27T13:41:40.305Z,1.52
2022-11-27T13:45:41.860Z,2.15
2022-11-27T13:49:43.597Z,1.58
2022-11-27T13:53:45.099Z,1.73
2022-11-27T13:57:52.763Z,1.73
2022-11-27T14:02:03.120Z,1.75
2022-11-27T14:06:17.325Z,1.80
2022-11-27T14:10:22.978Z,1.85
2022-11-27T14:14:28.172Z,1.88
2022-11-27T14:18:31.050Z,1.50
2022-11-27T14:23:11.079Z,1.38
2022-11-27T14:27:19.512Z,1.65
2022-11-27T14:31:33.129Z,1.85
2022-11-27T14:35:34.601Z,1.83
2022-11-27T14:39:37.546Z,3.20
2022-11-27T14:43:39.009Z,2.17
2022-11-27T14:47:47.305Z,3.63
2022-11-27T14:51:51.111Z,3.10
2022-11-27T14:55:56.332Z,2.90
2022-11-27T15:00:05.150Z,2.63
2022-11-27T15:04:25.947Z,1.65
2022-11-27T15:08:29.579Z,1.75
2022-11-27T15:12:36.753Z,1.70
2022-11-27T15:16:46.204Z,1.55
2022-11-27T15:20:47.973Z,1.38
2022-11-27T15:25:05.178Z,1.30
2022-11-27T15:29:33.136Z,2.53
2022-11-27T15:33:34.530Z,2.67
2022-11-27T15:37:36.048Z,1.52
2022-11-27T15:41:43.406Z,1.20
2022-11-27T15:45:45.818Z,1.83
2022-11-27T15:49:47.242Z,1.58
2022-11-27T15:53:48.816Z,2.25
2022-11-27T15:57:50.304Z,1.92
2022-11-27T16:01:51.740Z,1.85
2022-11-27T16:05:53.187Z,1.67
2022-11-27T16:09:54.599Z,1.50
2022-11-27T16:13:56.412Z,1.13
2022-11-27T16:17:58.007Z,1.77
2022-11-27T16:22:01.019Z,2.45
2022-11-27T16:26:02.782Z,1.45
2022-11-27T16:30:04.677Z,1.65
2022-11-27T16:34:06.559Z,1.42
2022-11-27T16:38:08.312Z,2.17
2022-11-27T16:42:10.268Z,2.83
2022-11-27T16:46:15.738Z,1.75
2022-11-27T16:50:17.374Z,1.85
2022-11-27T16:54:18.797Z,2.20
2022-11-27T16:58:21.057Z,1.30
2022-11-27T17:02:23.280Z,2.33
2022-11-27T17:06:27.691Z,1.67
2022-11-27T17:10:29.372Z,2.17
2022-11-27T17:14:30.801Z,2.28
2022-11-27T17:18:32.915Z,1.58
2022-11-27T17:22:34.415Z,2.55
2022-11-27T17:26:38.566Z,1.30
2022-11-27T17:30:40.051Z,1.48
2022-11-27T17:50:05.584Z,1.27
2022-11-27T17:54:07.426Z,1.33
2022-11-27T17:58:09.369Z,2.00
2022-11-27T18:02:11.779Z,0.80
2022-11-27T18:06:17.301Z,1.33
2022-11-27T18:10:19.710Z,0.82
2022-11-27T18:14:21.875Z,1.35
2022-11-27T18:18:23.394Z,0.98
2022-11-27T18:22:25.068Z,1.15
2022-11-27T18:26:45.607Z,1.35
2022-11-27T18:30:48.208Z,1.50
2022-11-27T18:34:53.024Z,1.58
2022-11-27T18:38:54.420Z,1.20
2022-11-27T18:42:55.816Z,1.10
2022-11-27T18:46:57.558Z,1.83
2022-11-27T18:51:11.189Z,1.67
2022-11-27T18:55:12.760Z,1.50
2022-11-27T18:59:14.178Z,1.98
2022-11-27T19:03:15.857Z,2.40
2022-11-27T19:07:17.496Z,1.83
2022-11-27T19:11:21.894Z,1.70
2022-11-27T19:15:23.320Z,1.90
2022-11-27T19:20:04.415Z,2.20
2022-11-27T19:23:49.147Z,1.25
2022-11-27T19:27:50.601Z,2.20
2022-11-27T19:31:55.013Z,2.42
2022-11-27T19:36:00.925Z,2.00
2022-11-27T19:40:04.999Z,1.88
2022-11-27T19:44:06.828Z,2.10
2022-11-27T19:48:08.254Z,1.63
2022-11-27T19:52:09.667Z,2.33
2022-11-27T19:56:11.727Z,1.70
2022-11-27T20:00:13.542Z,2.63
2022-11-27T20:04:19.869Z,2.13
2022-11-27T20:08:21.543Z,2.20
2022-11-27T20:12:22.954Z,1.77
2022-11-27T20:16:25.847Z,2.28
2022-11-27T20:20:32.776Z,1.50
2022-11-27T20:24:52.708Z,1.67
2022-11-27T20:28:58.756Z,2.08
2022-11-27T20:33:06.015Z,1.98
2022-11-27T20:37:08.919Z,1.77
2022-11-27T20:41:14.172Z,2.30
2022-11-27T20:45:20.177Z,2.03
2022-11-27T20:49:24.254Z,1.60
2022-11-27T20:53:25.799Z,2.40
2022-11-27T20:57:27.722Z,2.05
2022-11-27T21:01:31.849Z,1.63
2022-11-27T21:05:33.595Z,2.63
2022-11-27T21:09:35.015Z,1.48
2022-11-27T21:13:38.068Z,2.10
2022-11-27T21:17:39.576Z,1.35
2022-11-27T21:21:42.214Z,1.35
2022-11-27T21:25:44.065Z,0.82
2022-11-27T21:29:45.663Z,1.83
2022-11-27T21:33:53.066Z,1.40
2022-11-27T21:37:54.457Z,1.80
2022-11-27T21:41:57.073Z,1.98
2022-11-27T21:46:05.557Z,1.98
2022-11-27T21:50:07.635Z,1.33
2022-11-27T21:54:13.522Z,1.33
2022-11-27T21:58:14.963Z,1.48
